Time;durP1;ratioP1;P1;durP2;ratioP2;P2;SDS_P1;SDS_P2;PMS_P1;PMS_P2;Temp;Humidity;BMP_temperature;BMP_pressure;BME280_temperature;BME280_humidity;BME280_pressure;Samples;Min_cycle;Max_cycle;Signal;HPM_P1;HPM_P2
2023/01/02 15:35:33;;;;;;;;;;;;;;;;;;;;;
2023/01/02 15:39:08;;;;;;;;;;;;;;;;;;;;;
2023/01/02 15:47:02;;;;;;;15.55;6.15;;;;;;;14.57;55.58;100216.91;1991215;97;25887;-81
2023/01/02 15:50:59;;;;;;;14.90;6.72;;;;;;;14.83;55.29;100224.02;1988415;97;26072;-80
2023/01/02 15:54:41;;;;;;;10.75;6.92;;;;;;;15.05;54.99;100220.61;2025130;95;25634;-80
2023/01/02 15:58:36;;;;;;;13.13;7.05;;;;;;;15.27;54.63;100238.59;2028766;96;25862;-79
2023/01/02 16:06:41;;;;;;;9.75;6.08;;;;;;;15.62;53.90;100223.30;1891053;101;26179;-80
2023/01/02 16:10:17;;;;;;;11.08;6.95;;;;;;;15.75;53.54;100214.58;1902888;100;25761;-76
2023/01/02 16:18:00;;;;;;;8.10;6.83;;;;;;;15.97;52.98;100207.56;1975768;98;25808;-77
2023/01/02 16:22:00;;;;;;;14.07;7.40;;;;;;;16.08;52.68;100202.73;1973480;96;26033;-78
2023/01/02 16:26:05;;;;;;;15.08;7.95;;;;;;;16.15;52.48;100192.63;1972098;99;25799;-80
2023/01/02 16:29:35;;;;;;;12.90;8.67;;;;;;;16.22;52.19;100190.42;1971986;98;25777;-77
2023/01/02 16:33:25;;;;;;;11.85;7.45;;;;;;;16.27;52.00;100188.67;1993532;97;25889;-78
2023/01/02 16:37:41;;;;;;;;;;;;;;;;;;;;;
2023/01/02 16:41:10;;;;;;;10.88;7.25;;;;;;;16.36;51.64;100198.27;2018288;95;25864;-77
2023/01/02 16:45:21;;;;;;;13.05;7.60;;;;;;;16.40;51.50;100189.48;2118786;90;25721;-78
2023/01/02 16:49:06;;;;;;;16.77;8.18;;;;;;;16.42;51.33;100182.02;2077302;93;25762;-77
2023/01/02 16:53:02;;;;;;;14.28;8.45;;;;;;;16.45;51.22;100184.65;1974542;99;25918;-77
2023/01/02 16:56:48;;;;;;;;;;;;;;;;;;;;;
2023/01/02 17:00:12;;;;;;;12.23;7.47;;;;;;;16.48;50.97;100174.56;1962923;98;25845;-77
2023/01/02 17:03:45;;;;;;;13.80;8.30;;;;;;;16.50;50.89;100175.00;2058822;94;26253;-79
2023/01/02 17:07:22;;;;;;;13.40;8.18;;;;;;;16.51;50.80;100170.16;2075041;93;26697;-77
2023/01/02 17:11:21;;;;;;;9.78;7.53;;;;;;;16.52;50.75;100177.16;2179800;88;25737;-81
2023/01/02 17:14:51;;;;;;;8.70;7.40;;;;;;;16.52;50.72;100187.69;2223456;87;25759;-79
2023/01/02 17:18:32;;;;;;;10.38;8.03;;;;;;;16.53;50.65;100199.09;2212669;87;25634;-77
2023/01/02 17:22:04;;;;;;;15.20;9.90;;;;;;;16.53;50.57;100198.64;2217975;87;25983;-77
2023/01/02 17:25:46;;;;;;;;;;;;;;;;;;;;;
2023/01/02 17:29:25;;;;;;;11.93;8.90;;;;;;;16.52;50.51;100185.06;2144207;90;25849;-84
2023/01/02 17:33:23;;;;;;;11.03;7.75;;;;;;;16.53;50.50;100167.50;2062975;94;25723;-78
2023/01/02 17:37:11;;;;;;;;;;;;;;;;;;;;;
2023/01/02 17:40:48;;;;;;;8.88;7.80;;;;;;;16.51;50.45;100177.19;2023159;95;25741;-78
2023/01/02 17:44:32;;;;;;;12.63;7.28;;;;;;;16.49;50.45;100177.17;2045949;95;25423;-79
2023/01/02 17:48:23;;;;;;;9.20;8.30;;;;;;;16.49;50.48;100177.17;2046890;94;25764;-82
2023/01/02 17:52:13;;;;;;;18.10;8.43;;;;;;;16.47;50.42;100180.27;1981561;96;26002;-78
2023/01/02 17:55:43;;;;;;;12.43;8.38;;;;;;;16.46;50.46;100164.47;1984546;96;25724;-77
2023/01/02 17:59:22;;;;;;;;;;;;;;;;;;;;;
2023/01/02 18:02:49;;;;;;;8.65;7.35;;;;;;;16.44;50.50;100179.41;1998555;95;25723;-78
2023/01/02 18:06:37;;;;;;;15.30;8.30;;;;;;;16.43;50.47;100172.37;2050199;92;25720;-78
2023/01/02 18:10:14;;;;;;;9.70;8.18;;;;;;;16.42;50.47;100184.66;2069063;92;26386;-78
2023/01/02 18:14:19;;;;;;;;;;;;;;;;;;;;;
2023/01/02 18:17:39;;;;;;;9.50;7.47;;;;;;;16.40;50.53;100186.44;2078122;93;25731;-78
2023/01/02 18:21:21;;;;;;;10.88;7.25;;;;;;;16.39;50.57;100177.22;2085706;92;26571;-80
2023/01/02 18:24:58;;;;;;;9.10;7.58;;;;;;;16.39;50.56;100174.58;2100368;90;25777;-79
2023/01/02 18:32:47;;;;;;;10.30;7.33;;;;;;;16.37;50.60;100183.81;2103329;92;25937;-76
2023/01/02 18:40:02;;;;;;;11.20;8.30;;;;;;;16.35;50.70;100176.35;2025179;95;25949;-77
2023/01/02 18:43:38;;;;;;;11.83;7.28;;;;;;;16.34;50.68;100173.74;2012229;96;25876;-76
2023/01/02 18:47:30;;;;;;;7.90;7.10;;;;;;;16.33;50.74;100172.84;1955877;98;25982;-76
2023/01/02 18:51:07;;;;;;;11.10;7.65;;;;;;;16.32;50.78;100171.55;1928540;100;26460;-76
2023/01/02 18:54:38;;;;;;;9.05;6.87;;;;;;;16.30;50.76;100164.98;1966035;97;25783;-77
2023/01/02 18:58:50;;;;;;;13.15;7.15;;;;;;;16.30;50.76;100159.72;2002646;98;25946;-77
2023/01/02 19:02:46;;;;;;;10.93;7.72;;;;;;;16.28;50.77;100157.08;1989996;97;25818;-79
2023/01/02 19:06:38;;;;;;;;;;;;;;;;;;;;;
2023/01/02 19:10:55;;;;;;;;;;;;;;;;;;;;;
2023/01/02 19:28:17;;;;;;;9.35;7.35;;;;;;;16.17;50.94;100150.13;1808572;106;25892;-79
2023/01/02 19:32:37;;;;;;;;;;;;;;;;;;;;;
2023/01/02 19:45:55;;;;;;;12.13;7.85;;;;;;;16.13;51.78;100164.12;1817173;105;26173;-80
2023/01/02 20:00:44;;;;;;;;;;;;;;;;;;;;;
2023/01/02 20:04:34;;;;;;;11.08;7.17;;;;;;;16.12;51.75;100167.65;1883949;103;25864;-76
2023/01/02 20:08:50;;;;;;;8.98;7.78;;;;;;;16.10;51.75;100179.50;1963880;97;26492;-82
2023/01/02 20:12:43;;;;;;;8.88;7.20;;;;;;;16.09;51.74;100178.17;1976826;99;25889;-80
2023/01/02 20:16:35;;;;;;;10.40;6.72;;;;;;;16.11;51.69;100183.00;1878541;99;25970;-77
2023/01/02 20:20:14;;;;;;;11.50;7.45;;;;;;;16.10;51.65;100170.30;1842776;104;25924;-76
2023/01/02 20:27:56;;;;;;;8.93;6.55;;;;;;;16.13;51.59;100186.08;1812056;106;26283;-82
2023/01/02 20:31:58;;;;;;;8.10;6.97;;;;;;;16.12;51.58;100189.56;1793807;105;25816;-83
2023/01/02 20:52:17;;;;;;;;;;;;;;;;;;;;;
2023/01/02 21:04:37;;;;;;;10.60;7.10;;;;;;;16.17;51.37;100192.20;1635527;117;25895;-82
2023/01/02 21:08:30;;;;;;;;;;;;;;;;;;;;;
2023/01/02 21:13:06;;;;;;;11.83;6.55;;;;;;;16.15;51.38;100207.97;1739891;109;25734;-81
2023/01/02 21:15:51;;;;;;;11.13;7.07;;;;;;;16.12;51.41;100205.78;1732405;109;25923;-82
2023/01/02 21:19:28;;;;;;;12.40;7.03;;;;;;;16.14;51.43;100209.30;1788906;109;25901;-83
2023/01/02 21:23:48;;;;;;;7.17;6.20;;;;;;;16.14;51.40;100218.06;1786598;110;26247;-83
2023/01/02 21:27:37;;;;;;;8.55;6.35;;;;;;;16.14;51.40;100207.98;1773629;109;25826;-82
2023/01/02 21:31:41;;;;;;;7.83;5.87;;;;;;;16.14;51.47;100204.04;1772025;109;25591;-82
2023/01/02 21:39:46;;;;;;;;;;;;;;;;;;;;;
